Time;durP1;ratioP1;P1;durP2;ratioP2;P2;SDS_P1;SDS_P2;PMS_P1;PMS_P2;Temp;Humidity;BMP_temperature;BMP_pressure;BME280_temperature;BME280_humidity;BME280_pressure;Samples;Min_cycle;Max_cycle;Signal;HPM_P1;HPM_P2
2023/04/20 00:01:51;;;;;;;14.35;8.85;;;;;;;10.88;59.79;99615.59;4471426;31;20126;-87
2023/04/20 00:04:17;;;;;;;15.90;9.52;;;;;;;11.05;59.79;99620.19;4457610;32;20160;-89
2023/04/20 00:06:43;;;;;;;14.05;8.75;;;;;;;10.90;59.79;99623.38;4480153;31;20134;-88
2023/04/20 00:09:09;;;;;;;14.15;8.00;;;;;;;10.90;59.79;99618.16;4486749;31;20111;-89
2023/04/20 00:11:35;;;;;;;12.65;8.02;;;;;;;10.72;59.78;99623.09;4490034;31;20084;-89
2023/04/20 00:14:01;;;;;;;14.50;9.23;;;;;;;10.77;59.79;99612.53;4482641;32;20152;-87
2023/04/20 00:16:26;;;;;;;17.23;9.60;;;;;;;10.84;59.79;99619.19;4490217;31;20096;-88
2023/04/20 00:18:52;;;;;;;13.45;8.25;;;;;;;10.99;59.79;99610.00;4483685;32;20085;-89
2023/04/20 00:21:20;;;;;;;11.95;7.80;;;;;;;10.94;59.79;99612.78;4483610;32;20460;-85
2023/04/20 00:23:46;;;;;;;15.15;8.95;;;;;;;11.06;59.79;99609.72;4483918;32;20161;-86
2023/04/20 00:26:11;;;;;;;16.75;10.18;;;;;;;11.24;59.81;99612.56;4466477;31;35931;-86
2023/04/20 00:28:37;;;;;;;13.73;8.05;;;;;;;11.24;59.81;99610.81;4472701;31;22127;-86
2023/04/20 00:31:02;;;;;;;13.13;8.25;;;;;;;11.13;59.80;99606.91;4473384;31;20163;-87
2023/04/20 00:33:28;;;;;;;12.60;8.38;;;;;;;11.24;59.81;99603.00;4486091;31;20100;-86
2023/04/20 00:35:55;;;;;;;14.32;8.65;;;;;;;11.33;59.81;99607.84;4486655;31;20471;-88
2023/04/20 00:38:20;;;;;;;14.07;8.50;;;;;;;11.31;59.81;99603.63;4486133;31;20483;-88
2023/04/20 00:40:51;;;;;;;14.00;8.45;;;;;;;11.26;59.81;99610.75;4470805;32;20124;-88
2023/04/20 00:43:17;;;;;;;16.17;8.98;;;;;;;11.29;59.81;99606.28;4486482;31;20746;-87
2023/04/20 00:45:42;;;;;;;13.98;8.57;;;;;;;11.48;59.82;99603.00;4486419;31;20159;-88
2023/04/20 00:48:08;;;;;;;17.67;9.20;;;;;;;11.46;59.82;99607.41;4483751;31;20103;-87
2023/04/20 00:50:33;;;;;;;14.65;8.30;;;;;;;11.18;59.80;99611.06;4470235;32;20161;-88
2023/04/20 00:53:00;;;;;;;15.48;9.32;;;;;;;11.47;59.82;99603.91;4457618;32;20127;-88
2023/04/20 00:55:25;;;;;;;15.82;9.23;;;;;;;11.37;59.81;99600.81;4480708;31;20157;-89
2023/04/20 00:57:51;;;;;;;13.27;8.90;;;;;;;11.35;59.80;99600.81;4486212;31;20104;-88
2023/04/20 01:00:17;;;;;;;15.60;9.43;;;;;;;11.32;59.81;99613.13;4486479;31;20092;-87
2023/04/20 01:02:42;;;;;;;14.10;8.52;;;;;;;11.27;59.81;99602.88;4471337;32;20119;-88
2023/04/20 01:05:08;;;;;;;16.60;9.43;;;;;;;11.26;59.81;99606.41;4489325;31;30105;-88
2023/04/20 01:07:33;;;;;;;15.05;9.80;;;;;;;11.33;59.81;99609.63;4483682;32;20119;-88
2023/04/20 01:09:59;;;;;;;17.83;9.57;;;;;;;11.23;59.81;99609.12;4466817;31;20138;-88
2023/04/20 01:12:24;;;;;;;16.85;9.15;;;;;;;11.24;59.81;99608.22;4486002;31;20115;-88
2023/04/20 01:14:50;;;;;;;16.08;9.82;;;;;;;11.16;59.80;99610.25;4477209;32;20133;-88
2023/04/20 01:17:16;;;;;;;18.25;10.18;;;;;;;11.01;59.80;99605.59;4474610;31;20108;-89
2023/04/20 01:19:43;;;;;;;14.95;10.05;;;;;;;11.08;59.80;99610.50;4483841;32;20085;-87
2023/04/20 01:22:15;;;;;;;16.42;10.02;;;;;;;10.96;59.79;99599.72;4482231;32;20104;-87
2023/04/20 01:24:40;;;;;;;16.50;10.20;;;;;;;11.19;59.80;99612.75;4483684;32;20149;-88
2023/04/20 01:27:06;;;;;;;19.25;10.05;;;;;;;10.94;59.79;99614.53;4482619;32;20099;-88
2023/04/20 01:29:32;;;;;;;17.95;10.70;;;;;;;10.88;59.78;99612.13;4470422;32;20096;-88
2023/04/20 01:31:58;;;;;;;15.63;9.98;;;;;;;11.04;59.79;99608.09;4485599;31;20479;-88
2023/04/20 01:34:23;;;;;;;17.50;10.20;;;;;;;10.99;59.79;99603.03;4469767;32;23998;-87
2023/04/20 01:36:48;;;;;;;17.12;10.48;;;;;;;11.08;59.80;99607.06;4483015;32;20101;-88
2023/04/20 01:39:15;;;;;;;16.30;10.07;;;;;;;10.68;59.77;99603.28;4483824;32;20138;-88
2023/04/20 01:41:40;;;;;;;18.48;11.02;;;;;;;10.86;59.79;99606.97;4480925;32;20247;-88
2023/04/20 01:44:06;;;;;;;21.33;11.02;;;;;;;10.70;59.78;99604.09;4483330;32;20100;-87
2023/04/20 01:46:31;;;;;;;17.70;10.70;;;;;;;10.57;59.77;99610.59;4483486;32;20100;-87
2023/04/20 01:48:57;;;;;;;15.18;10.18;;;;;;;10.63;59.77;99604.31;4483429;32;20080;-87
2023/04/20 01:51:22;;;;;;;16.45;10.05;;;;;;;10.51;59.77;99604.75;4485892;31;20172;-86
2023/04/20 01:53:47;;;;;;;16.45;9.80;;;;;;;10.65;59.77;99605.16;4485945;31;20384;-86
2023/04/20 01:56:13;;;;;;;17.02;10.93;;;;;;;10.51;59.76;99608.22;4485658;31;20504;-87
2023/04/20 01:58:38;;;;;;;19.30;10.70;;;;;;;10.11;59.75;99612.09;4476028;32;35212;-87
2023/04/20 02:01:04;;;;;;;17.98;11.27;;;;;;;10.14;59.74;99601.59;4471537;32;20183;-87
2023/04/20 02:03:29;;;;;;;18.58;11.27;;;;;;;10.20;59.75;99605.75;4484570;31;20114;-87
2023/04/20 02:05:55;;;;;;;19.35;11.70;;;;;;;10.14;59.74;99611.13;4483238;32;20096;-87
2023/04/20 02:08:21;;;;;;;16.87;9.80;;;;;;;10.22;59.74;99614.41;4478833;31;20131;-87
2023/04/20 02:10:46;;;;;;;17.00;10.52;;;;;;;10.11;59.74;99613.84;4472599;31;20280;-88
2023/04/20 02:13:11;;;;;;;19.48;11.25;;;;;;;10.06;59.74;99614.00;4485234;31;22140;-87
2023/04/20 02:15:37;;;;;;;20.73;11.88;;;;;;;10.14;59.74;99611.13;4484980;31;20150;-88
2023/04/20 02:18:02;;;;;;;19.85;11.45;;;;;;;10.01;59.73;99617.66;4485715;31;20110;-88
2023/04/20 02:20:28;;;;;;;16.73;10.65;;;;;;;9.77;59.72;99614.91;4484584;31;20228;-88
2023/04/20 02:22:53;;;;;;;20.90;11.73;;;;;;;9.70;59.71;99618.63;4478300;31;20096;-87
2023/04/20 02:25:19;;;;;;;17.62;11.05;;;;;;;9.77;59.72;99624.47;4472383;31;20099;-87
2023/04/20 02:27:45;;;;;;;20.98;12.10;;;;;;;9.74;59.73;99624.56;4485776;31;20164;-88
2023/04/20 02:30:11;;;;;;;21.23;11.85;;;;;;;9.79;59.73;99620.91;4485182;31;20725;-88
2023/04/20 02:32:36;;;;;;;19.77;11.40;;;;;;;9.77;59.72;99616.66;4490483;31;20109;-87
2023/04/20 02:35:05;;;;;;;18.17;11.00;;;;;;;9.65;59.72;99617.03;4482378;32;20140;-88
2023/04/20 02:37:31;;;;;;;18.77;11.75;;;;;;;9.57;59.71;99616.41;4469738;32;20104;-87
2023/04/20 02:39:56;;;;;;;22.25;11.43;;;;;;;9.72;59.73;99614.22;4482590;32;20168;-89
2023/04/20 02:42:21;;;;;;;19.77;10.73;;;;;;;9.53;59.71;99610.47;4475291;32;20519;-88
2023/04/20 02:44:47;;;;;;;21.62;11.90;;;;;;;9.37;59.70;99615.25;4483983;32;20096;-88
2023/04/20 02:47:12;;;;;;;19.48;10.95;;;;;;;9.24;59.69;99629.50;4480437;31;20761;-87
2023/04/20 02:49:37;;;;;;;20.00;10.98;;;;;;;9.33;59.69;99618.84;4487002;31;20166;-87
2023/04/20 02:52:04;;;;;;;22.92;11.52;;;;;;;9.49;59.72;99619.25;4478427;32;34253;-88
2023/04/20 02:54:29;;;;;;;20.25;11.75;;;;;;;9.38;59.70;99619.56;4484662;32;20096;-88
2023/04/20 02:56:55;;;;;;;21.70;12.02;;;;;;;9.44;59.71;99619.37;4485591;31;23108;-88
2023/04/20 02:59:20;;;;;;;19.90;11.40;;;;;;;9.45;59.70;99620.22;4484642;32;20434;-88
2023/04/20 03:01:45;;;;;;;18.73;10.77;;;;;;;9.46;59.71;99620.19;4471900;32;20139;-89
2023/04/20 03:04:11;;;;;;;23.17;11.88;;;;;;;9.49;59.72;99627.03;4471988;31;20104;-90
2023/04/20 03:06:39;;;;;;;21.05;10.88;;;;;;;9.50;59.71;99627.00;4471262;32;20132;-89
2023/04/20 03:09:04;;;;;;;21.98;11.95;;;;;;;9.52;59.71;99625.22;4460772;32;20138;-89
2023/04/20 03:11:30;;;;;;;20.62;11.88;;;;;;;9.56;59.71;99617.31;4471502;32;20430;-89
2023/04/20 03:13:55;;;;;;;18.45;11.05;;;;;;;9.71;59.71;99617.72;4485897;31;20104;-88
2023/04/20 03:16:21;;;;;;;19.62;11.50;;;;;;;9.69;59.72;99616.88;4479532;31;20146;-89
2023/04/20 03:18:46;;;;;;;18.67;10.65;;;;;;;9.63;59.71;99617.06;4474174;32;20142;-89
2023/04/20 03:21:11;;;;;;;19.87;11.20;;;;;;;9.83;59.73;99622.53;4479865;31;20144;-90
2023/04/20 03:23:37;;;;;;;20.50;11.10;;;;;;;9.68;59.72;99620.37;4475698;31;29385;-86
2023/04/20 03:26:03;;;;;;;20.00;11.43;;;;;;;9.56;59.70;99623.38;4486982;31;20712;-89
2023/04/20 03:28:28;;;;;;;19.40;10.90;;;;;;;9.58;59.71;99623.31;4473906;31;20112;-88
2023/04/20 03:30:53;;;;;;;21.17;11.82;;;;;;;9.37;59.70;99624.78;4486756;31;23405;-88
2023/04/20 03:33:19;;;;;;;21.55;11.20;;;;;;;9.28;59.70;99622.47;4486217;31;20149;-88
2023/04/20 03:35:45;;;;;;;18.23;11.65;;;;;;;9.18;59.70;99627.91;4485716;31;20108;-88
2023/04/20 03:38:10;;;;;;;18.12;10.93;;;;;;;9.30;59.70;99624.12;4471291;32;20144;-88
2023/04/20 03:40:35;;;;;;;20.15;12.43;;;;;;;9.25;59.69;99633.81;4484189;32;20100;-87
2023/04/20 03:43:01;;;;;;;20.42;12.23;;;;;;;9.19;59.68;99639.16;4471000;31;20498;-88
2023/04/20 03:45:26;;;;;;;22.08;10.73;;;;;;;9.18;59.69;99642.63;4470964;32;20151;-89
2023/04/20 03:47:51;;;;;;;22.85;11.05;;;;;;;9.16;59.69;99639.25;4471157;31;20127;-89
2023/04/20 03:50:17;;;;;;;18.62;11.00;;;;;;;9.32;59.69;99637.91;4471056;32;20104;-89
2023/04/20 03:52:42;;;;;;;20.90;11.07;;;;;;;9.02;59.68;99636.19;4485337;31;20448;-89
2023/04/20 03:55:08;;;;;;;20.33;11.73;;;;;;;9.06;59.69;99650.78;4469935;32;30523;-89
2023/04/20 03:57:33;;;;;;;21.73;12.00;;;;;;;9.21;59.69;99645.16;4471104;32;20139;-90
2023/04/20 03:59:59;;;;;;;23.05;11.50;;;;;;;8.93;59.67;99651.09;4483341;32;34109;-89
2023/04/20 04:02:24;;;;;;;19.60;11.18;;;;;;;8.81;59.66;99653.19;4481338;31;20124;-88
2023/04/20 04:04:49;;;;;;;23.20;12.40;;;;;;;8.89;59.68;99649.50;4483352;32;33117;-88
2023/04/20 04:07:15;;;;;;;22.30;12.45;;;;;;;8.85;59.67;99652.22;4470814;31;20181;-88
2023/04/20 04:09:40;;;;;;;22.25;11.93;;;;;;;8.87;59.67;99648.69;4471151;32;20097;-87
2023/04/20 04:12:06;;;;;;;21.52;12.13;;;;;;;8.90;59.68;99645.16;4470580;31;20380;-89
2023/04/20 04:14:32;;;;;;;18.95;11.25;;;;;;;8.85;59.67;99649.63;4471266;32;20141;-88
2023/04/20 04:16:58;;;;;;;22.17;11.35;;;;;;;8.92;59.67;99649.41;4472869;31;20380;-90
2023/04/20 04:19:23;;;;;;;21.62;11.25;;;;;;;8.84;59.67;99653.97;4492281;31;21208;-89
2023/04/20 04:21:48;;;;;;;20.90;11.07;;;;;;;8.91;59.68;99647.69;4481376;31;20096;-90
2023/04/20 04:24:14;;;;;;;19.45;10.65;;;;;;;8.97;59.69;99651.88;4484039;32;20162;-90
2023/04/20 04:26:39;;;;;;;21.77;11.43;;;;;;;9.04;59.69;99645.63;4470333;31;26086;-87
2023/04/20 04:29:05;;;;;;;21.58;11.80;;;;;;;9.08;59.68;99649.00;4484352;32;20096;-88
2023/04/20 04:31:33;;;;;;;23.40;11.95;;;;;;;9.15;59.69;99650.53;4484254;31;20122;-87
2023/04/20 04:33:59;;;;;;;19.25;10.68;;;;;;;9.18;59.68;99653.88;4471472;32;20085;-88
2023/04/20 04:36:25;;;;;;;19.98;11.68;;;;;;;9.22;59.69;99646.84;4458044;31;20108;-88
2023/04/20 04:38:51;;;;;;;21.80;11.60;;;;;;;9.19;59.69;99655.59;4471217;32;20126;-85
2023/04/20 04:41:17;;;;;;;20.83;11.80;;;;;;;9.58;59.71;99644.09;4485358;31;20076;-85
2023/04/20 04:43:43;;;;;;;19.85;11.48;;;;;;;9.52;59.71;99651.19;4483979;32;20505;-87
2023/04/20 04:46:09;;;;;;;22.33;12.05;;;;;;;9.63;59.71;99648.25;4470782;32;20092;-88
2023/04/20 04:48:35;;;;;;;19.77;11.65;;;;;;;9.79;59.73;99646.06;4483980;32;20195;-89
2023/04/20 04:51:01;;;;;;;22.10;10.93;;;;;;;9.63;59.71;99657.81;4470664;31;20081;-90
2023/04/20 04:53:26;;;;;;;23.90;11.63;;;;;;;9.82;59.72;99657.22;4477917;31;20416;-89
2023/04/20 04:56:10;;;;;;;20.60;11.60;;;;;;;9.80;59.73;99652.97;4486129;31;20188;-87
2023/04/20 04:58:36;;;;;;;23.38;12.73;;;;;;;10.05;59.74;99656.50;4501164;31;20119;-89
2023/04/20 05:01:01;;;;;;;20.83;12.20;;;;;;;10.18;59.75;99656.13;4485081;31;20129;-89
2023/04/20 05:03:27;;;;;;;21.23;11.93;;;;;;;10.18;59.75;99654.38;4482810;32;27528;-89
2023/04/20 05:05:52;;;;;;;23.95;11.68;;;;;;;10.26;59.75;99655.00;4470634;32;20141;-90
2023/04/20 05:08:17;;;;;;;23.50;11.43;;;;;;;10.27;59.75;99654.09;4469193;32;20152;-91
2023/04/20 05:10:43;;;;;;;21.87;12.02;;;;;;;10.40;59.76;99658.00;4471215;31;20147;-89
2023/04/20 05:13:08;;;;;;;21.23;12.25;;;;;;;10.55;59.77;99659.25;4470028;32;20114;-89
2023/04/20 05:15:34;;;;;;;23.80;12.88;;;;;;;10.59;59.77;99655.66;4469430;32;23838;-89
2023/04/20 05:18:01;;;;;;;21.48;11.73;;;;;;;10.74;59.77;99657.75;4491859;31;20100;-87
2023/04/20 05:20:26;;;;;;;18.25;10.65;;;;;;;10.92;59.79;99652.81;4485902;31;20088;-87
2023/04/20 05:22:51;;;;;;;18.17;11.32;;;;;;;10.95;59.79;99652.69;4485890;31;20127;-86
2023/04/20 05:25:17;;;;;;;18.85;11.00;;;;;;;10.94;59.79;99654.44;4469653;32;20732;-90
2023/04/20 05:27:42;;;;;;;18.62;11.18;;;;;;;11.10;59.80;99646.94;4483255;31;20112;-89
2023/04/20 05:30:08;;;;;;;17.98;11.30;;;;;;;11.42;59.81;99650.13;4483104;31;26549;-89
2023/04/20 05:32:34;;;;;;;20.10;11.77;;;;;;;11.45;59.81;99653.47;4472756;31;20130;-90
2023/04/20 05:34:59;;;;;;;25.17;12.48;;;;;;;11.69;59.83;99651.72;4472346;31;20119;-89
2023/04/20 05:37:26;;;;;;;18.20;11.02;;;;;;;11.86;59.84;99657.16;4483552;32;20530;-89
2023/04/20 05:39:51;;;;;;;19.02;10.57;;;;;;;11.90;59.84;99658.75;4483701;31;20122;-89
2023/04/20 05:42:17;;;;;;;22.87;12.25;;;;;;;11.98;59.84;99650.59;4486070;31;20445;-89
2023/04/20 05:44:42;;;;;;;20.17;11.20;;;;;;;12.23;59.86;99655.69;4482254;31;29598;-86
2023/04/20 05:47:08;;;;;;;18.35;10.50;;;;;;;12.38;59.86;99657.69;4478218;31;20184;-87
2023/04/20 05:49:34;;;;;;;19.15;10.95;;;;;;;12.68;59.89;99659.94;4470007;31;20339;-86
2023/04/20 05:52:00;;;;;;;17.40;10.25;;;;;;;12.57;59.88;99658.66;4470724;32;20354;-87
2023/04/20 05:54:27;;;;;;;19.12;10.25;;;;;;;12.76;59.89;99657.84;4470082;32;20168;-87
2023/04/20 05:56:53;;;;;;;17.87;9.85;;;;;;;13.09;59.90;99656.41;4478190;31;20130;-87
2023/04/20 05:59:18;;;;;;;21.48;10.85;;;;;;;13.23;59.91;99658.44;4469795;32;20140;-86
2023/04/20 06:01:44;;;;;;;17.25;10.18;;;;;;;13.36;59.92;99658.75;4470578;32;20122;-87
2023/04/20 06:04:09;;;;;;;14.45;8.85;;;;;;;13.27;59.92;99659.19;4479860;32;20144;-87
2023/04/20 06:06:34;;;;;;;15.30;9.63;;;;;;;13.37;59.92;99663.06;4482943;32;21713;-87
2023/04/20 06:09:00;;;;;;;16.23;10.07;;;;;;;13.56;59.92;99663.09;4484350;31;20123;-87
2023/04/20 06:11:25;;;;;;;16.10;9.52;;;;;;;13.72;59.93;99656.22;4465273;31;20403;-87
2023/04/20 06:13:51;;;;;;;14.90;9.60;;;;;;;13.98;59.95;99661.09;4482406;32;20165;-87
2023/04/20 06:16:16;;;;;;;13.43;8.77;;;;;;;14.17;59.96;99666.28;4475078;32;29216;-87
2023/04/20 06:18:42;;;;;;;14.68;8.40;;;;;;;14.47;59.97;99660.53;4468917;32;20128;-87
2023/04/20 06:21:10;;;;;;;15.38;8.13;;;;;;;14.64;59.99;99665.78;4488608;31;20130;-87
2023/04/20 06:23:36;;;;;;;13.82;8.27;;;;;;;14.78;59.99;99654.62;4474589;32;20460;-87
2023/04/20 06:26:02;;;;;;;12.43;8.27;;;;;;;14.70;59.98;99661.09;4468386;31;20421;-88
2023/04/20 06:28:27;;;;;;;17.27;8.43;;;;;;;15.00;60.00;99658.69;4475946;31;20092;-88
2023/04/20 06:30:53;;;;;;;12.77;7.50;;;;;;;15.18;60.02;99658.66;4496608;31;20373;-87
2023/04/20 06:33:18;;;;;;;16.25;8.18;;;;;;;15.46;60.03;99661.50;4478400;31;20508;-87
2023/04/20 06:35:44;;;;;;;10.57;7.45;;;;;;;15.56;60.04;99662.69;4490755;31;20138;-88
2023/04/20 06:38:09;;;;;;;14.85;7.68;;;;;;;15.61;60.03;99662.47;4487701;32;20092;-87
2023/04/20 06:40:35;;;;;;;11.50;6.82;;;;;;;15.91;60.05;99657.34;4496543;31;20119;-87
2023/04/20 06:43:00;;;;;;;10.52;6.65;;;;;;;16.11;60.06;99667.59;4487520;32;20505;-87
2023/04/20 06:45:26;;;;;;;11.18;6.43;;;;;;;16.24;60.08;99658.09;4489787;31;24530;-87
2023/04/20 06:47:51;;;;;;;13.05;6.30;;;;;;;16.37;60.08;99654.78;4489613;31;20114;-88
2023/04/20 06:50:17;;;;;;;11.93;7.20;;;;;;;16.48;60.09;99655.84;4487594;32;20136;-88
2023/04/20 06:52:42;;;;;;;9.70;6.18;;;;;;;16.75;60.10;99657.81;4474629;32;20108;-88
2023/04/20 06:55:08;;;;;;;10.73;6.20;;;;;;;16.80;60.10;99659.28;4489122;31;20441;-87
2023/04/20 06:57:33;;;;;;;10.57;6.22;;;;;;;16.94;60.11;99655.81;4476767;31;20522;-87
2023/04/20 06:59:59;;;;;;;9.32;5.57;;;;;;;17.17;60.13;99657.06;4490316;31;20096;-87
2023/04/20 07:02:24;;;;;;;9.70;5.28;;;;;;;17.10;60.12;99661.00;4474423;31;20152;-87
2023/04/20 07:04:50;;;;;;;9.93;6.18;;;;;;;17.33;60.13;99655.19;4481934;31;20153;-87
2023/04/20 07:07:15;;;;;;;15.75;6.40;;;;;;;17.29;60.13;99660.75;4487331;31;20143;-88
2023/04/20 07:09:40;;;;;;;7.53;5.37;;;;;;;17.49;60.14;99653.28;4481779;31;20130;-88
2023/04/20 07:12:06;;;;;;;9.35;6.00;;;;;;;17.46;60.14;99656.09;4474863;31;20099;-87
2023/04/20 07:14:31;;;;;;;9.60;5.78;;;;;;;17.55;60.15;99657.34;4461433;32;20129;-87
2023/04/20 07:16:57;;;;;;;7.12;4.62;;;;;;;17.43;60.13;99655.47;4484683;31;20119;-87
2023/04/20 07:19:22;;;;;;;10.13;5.70;;;;;;;17.67;60.15;99658.34;4481400;31;20131;-87
2023/04/20 07:21:48;;;;;;;11.00;5.72;;;;;;;17.84;60.15;99654.69;4491193;31;20185;-88
2023/04/20 07:24:13;;;;;;;9.27;5.60;;;;;;;18.05;60.17;99658.59;4465074;32;26152;-88
2023/04/20 07:26:38;;;;;;;10.25;5.03;;;;;;;17.91;60.16;99656.84;4474053;31;20126;-88
2023/04/20 07:29:04;;;;;;;6.87;4.37;;;;;;;17.90;60.16;99652.50;4480918;31;20109;-88
2023/04/20 07:31:29;;;;;;;7.82;4.53;;;;;;;17.96;60.17;99656.53;4474314;31;20425;-87
2023/04/20 07:33:55;;;;;;;7.95;4.22;;;;;;;17.81;60.16;99653.13;4471612;32;20105;-88
2023/04/20 07:36:21;;;;;;;11.45;6.20;;;;;;;17.79;60.16;99657.63;4485654;31;20108;-88
2023/04/20 07:38:47;;;;;;;8.77;5.53;;;;;;;17.93;60.17;99660.22;4464922;31;20108;-87
2023/04/20 07:41:12;;;;;;;7.82;5.55;;;;;;;18.02;60.17;99661.44;4471249;31;20132;-87
2023/04/20 07:43:38;;;;;;;6.97;4.35;;;;;;;18.25;60.19;99662.59;4458141;32;20477;-88
2023/04/20 07:46:03;;;;;;;9.45;5.18;;;;;;;18.28;60.18;99657.13;4484139;31;20115;-87
2023/04/20 07:48:29;;;;;;;8.27;4.75;;;;;;;18.36;60.19;99655.66;4464087;31;20100;-87
2023/04/20 07:50:54;;;;;;;8.02;4.28;;;;;;;18.45;60.19;99656.84;4473226;31;20123;-88
2023/04/20 07:53:20;;;;;;;8.35;4.87;;;;;;;18.67;60.20;99665.03;4463895;31;20457;-88
2023/04/20 07:55:45;;;;;;;7.68;4.60;;;;;;;18.80;60.21;99657.19;4500483;31;20168;-87
2023/04/20 07:58:11;;;;;;;6.75;3.83;;;;;;;18.85;60.22;99649.78;4476925;31;25764;-88
2023/04/20 08:00:36;;;;;;;9.18;4.78;;;;;;;18.99;60.22;99656.78;4489421;31;20122;-88
2023/04/20 08:03:02;;;;;;;8.63;4.82;;;;;;;19.10;60.23;99653.41;4470120;32;27854;-87
2023/04/20 08:05:27;;;;;;;8.60;4.62;;;;;;;19.06;60.23;99652.75;4471206;31;20354;-87
2023/04/20 08:07:53;;;;;;;7.22;5.15;;;;;;;19.10;60.23;99651.59;4477349;31;20139;-87
2023/04/20 08:10:18;;;;;;;9.57;5.60;;;;;;;19.15;60.23;99646.00;4489486;31;20217;-88
2023/04/20 08:12:44;;;;;;;6.60;4.12;;;;;;;19.36;60.24;99651.59;4493246;31;20105;-87
2023/04/20 08:15:10;;;;;;;9.57;4.70;;;;;;;19.43;60.24;99652.88;4469297;31;20132;-87
2023/04/20 08:17:35;;;;;;;5.78;4.43;;;;;;;19.33;60.25;99656.13;4486871;31;20161;-87
2023/04/20 08:20:00;;;;;;;7.22;4.50;;;;;;;19.39;60.25;99659.28;4484197;31;20120;-87
2023/04/20 08:22:28;;;;;;;9.35;3.97;;;;;;;19.33;60.25;99660.56;4476908;31;20111;-87
2023/04/20 08:24:55;;;;;;;6.75;3.92;;;;;;;19.58;60.25;99660.56;4486733;31;20448;-87
2023/04/20 08:27:21;;;;;;;7.53;4.55;;;;;;;19.70;60.27;99660.66;4487080;31;20140;-87
2023/04/20 08:29:46;;;;;;;9.55;4.93;;;;;;;19.78;60.27;99651.25;4486653;31;20147;-87
2023/04/20 08:32:12;;;;;;;6.47;4.50;;;;;;;20.03;60.28;99647.66;4470833;32;20143;-87
2023/04/20 08:34:38;;;;;;;10.60;5.00;;;;;;;20.24;60.30;99650.56;4472436;31;20092;-88
2023/04/20 08:37:03;;;;;;;7.97;4.22;;;;;;;20.46;60.30;99641.91;4484117;32;20487;-88
2023/04/20 08:39:29;;;;;;;7.05;4.68;;;;;;;20.48;60.31;99645.28;4484086;31;20112;-87
2023/04/20 08:41:56;;;;;;;9.45;4.65;;;;;;;20.63;60.32;99640.66;4474925;32;20140;-88
2023/04/20 08:44:22;;;;;;;6.82;4.45;;;;;;;20.79;60.32;99643.81;4467344;31;20122;-88
2023/04/20 08:46:47;;;;;;;7.25;4.28;;;;;;;21.01;60.34;99641.22;4471161;32;20810;-88
2023/04/20 08:49:16;;;;;;;6.15;4.20;;;;;;;21.12;60.34;99633.31;4483935;31;20116;-87
2023/04/20 08:51:42;;;;;;;7.03;4.07;;;;;;;21.24;60.35;99642.13;4478180;31;20112;-87
2023/04/20 08:54:08;;;;;;;6.95;4.57;;;;;;;21.40;60.36;99633.84;4499057;31;20113;-87
2023/04/20 08:56:46;;;;;;;8.15;4.22;;;;;;;21.50;60.37;99629.47;4483555;32;26872;-88
2023/04/20 08:59:13;;;;;;;8.57;4.07;;;;;;;21.54;60.36;99630.94;4458947;31;20116;-88
2023/04/20 09:01:40;;;;;;;8.35;4.50;;;;;;;21.60;60.36;99629.63;4483921;32;20138;-88
2023/04/20 09:04:25;;;;;;;6.03;3.90;;;;;;;21.60;60.37;99641.06;4467790;31;20112;-88
2023/04/20 09:06:52;;;;;;;8.88;4.10;;;;;;;21.43;60.36;99644.19;4483893;32;20127;-87
2023/04/20 09:09:18;;;;;;;11.70;4.50;;;;;;;21.21;60.34;99637.03;4469620;31;20154;-88
2023/04/20 09:11:43;;;;;;;8.15;4.28;;;;;;;21.28;60.35;99634.78;4480360;31;20130;-88
2023/04/20 09:14:11;;;;;;;7.28;4.62;;;;;;;21.45;60.36;99636.94;4486234;31;20131;-88
2023/04/20 09:17:00;;;;;;;5.62;4.30;;;;;;;21.69;60.36;99629.72;4476761;32;20177;-87
2023/04/20 09:19:27;;;;;;;7.03;4.33;;;;;;;21.71;60.38;99630.44;4471034;32;20131;-87
2023/04/20 09:21:54;;;;;;;6.60;4.43;;;;;;;21.40;60.36;99632.03;4480513;31;20143;-86
2023/04/20 09:24:20;;;;;;;7.22;3.83;;;;;;;21.34;60.35;99632.50;4464681;31;20424;-87
2023/04/20 09:26:46;;;;;;;6.40;3.80;;;;;;;21.46;60.36;99633.34;4486557;31;20088;-88
2023/04/20 09:29:19;;;;;;;5.35;3.75;;;;;;;21.70;60.37;99627.91;4483513;32;20449;-88
2023/04/20 09:31:44;;;;;;;8.02;3.87;;;;;;;21.97;60.39;99630.13;4481646;31;20485;-87
2023/04/20 09:34:10;;;;;;;6.28;3.85;;;;;;;22.17;60.39;99629.41;4470634;32;20140;-88
2023/04/20 09:36:49;;;;;;;5.45;3.90;;;;;;;22.22;60.40;99621.91;4483508;32;20100;-88
2023/04/20 09:39:19;;;;;;;5.50;4.12;;;;;;;22.25;60.40;99612.87;4483605;32;20104;-88
2023/04/20 09:41:44;;;;;;;6.72;3.78;;;;;;;22.33;60.41;99615.72;4485759;31;20122;-88
2023/04/20 09:44:10;;;;;;;4.97;3.95;;;;;;;22.60;60.42;99617.88;4485246;31;20108;-88
2023/04/20 09:46:37;;;;;;;7.43;3.53;;;;;;;22.85;60.43;99616.69;4470564;32;20468;-88
2023/04/20 09:49:04;;;;;;;6.30;3.72;;;;;;;23.01;60.44;99610.94;4482543;32;20134;-88
2023/04/20 09:51:31;;;;;;;9.75;4.90;;;;;;;23.16;60.45;99613.09;4468828;32;20092;-88
2023/04/20 09:53:58;;;;;;;7.20;4.22;;;;;;;23.13;60.45;99612.50;4481514;32;20115;-88
2023/04/20 09:56:24;;;;;;;8.65;5.35;;;;;;;23.01;60.44;99621.53;4484599;31;20083;-89
2023/04/20 09:58:50;;;;;;;9.57;4.85;;;;;;;23.03;60.44;99616.94;4485077;31;20096;-89
2023/04/20 10:01:15;;;;;;;6.57;4.85;;;;;;;22.74;60.43;99617.56;4484646;31;20159;-88
2023/04/20 10:03:41;;;;;;;7.00;4.80;;;;;;;22.70;60.43;99616.12;4484724;31;20120;-88
2023/04/20 10:06:23;;;;;;;7.15;3.95;;;;;;;22.90;60.44;99611.81;4485070;31;20767;-90
2023/04/20 10:08:50;;;;;;;9.63;5.75;;;;;;;22.94;60.45;99616.72;4486181;31;20105;-88
2023/04/20 10:11:25;;;;;;;9.55;4.93;;;;;;;23.07;60.44;99605.06;4476047;31;20087;-90
2023/04/20 10:13:51;;;;;;;7.10;6.05;;;;;;;23.33;60.46;99611.63;4484523;31;20987;-90
2023/04/20 10:16:17;;;;;;;6.43;4.55;;;;;;;23.32;60.45;99609.94;4476556;31;20147;-90
2023/04/20 10:18:42;;;;;;;6.32;4.12;;;;;;;23.20;60.46;99611.03;4471944;32;20116;-88
2023/04/20 10:21:09;;;;;;;6.45;4.53;;;;;;;22.93;60.44;99607.09;4480856;32;25305;-90
2023/04/20 10:23:34;;;;;;;6.87;4.57;;;;;;;22.90;60.45;99612.66;4468105;31;20104;-88
2023/04/20 10:26:01;;;;;;;6.78;4.25;;;;;;;22.57;60.42;99611.03;4482388;32;20108;-88
2023/04/20 10:28:40;;;;;;;7.12;4.40;;;;;;;22.24;60.41;99609.38;4468974;32;20146;-89
2023/04/20 10:31:06;;;;;;;7.25;4.75;;;;;;;22.50;60.42;99606.38;4481593;32;20096;-89
2023/04/20 10:33:32;;;;;;;6.57;4.72;;;;;;;22.42;60.42;99604.34;4483318;31;20465;-90
2023/04/20 10:35:58;;;;;;;6.43;4.40;;;;;;;22.19;60.41;99605.41;4469234;32;20122;-88
2023/04/20 10:38:31;;;;;;;8.63;4.43;;;;;;;22.35;60.42;99604.03;4469254;32;20104;-89
2023/04/20 10:41:04;;;;;;;6.00;4.10;;;;;;;22.70;60.43;99594.06;4479358;31;20171;-88
2023/04/20 10:43:29;;;;;;;5.60;4.20;;;;;;;22.93;60.44;99600.94;4492713;31;20117;-88
2023/04/20 10:45:54;;;;;;;9.40;4.35;;;;;;;23.16;60.46;99588.34;4469755;31;20188;-90
2023/04/20 10:48:20;;;;;;;7.18;4.53;;;;;;;23.56;60.48;99588.41;4492734;31;20112;-88
2023/04/20 10:50:46;;;;;;;6.68;5.05;;;;;;;23.69;60.48;99582.84;4482537;32;20422;-89
2023/04/20 10:53:21;;;;;;;12.45;5.72;;;;;;;23.76;60.49;99581.31;4482258;32;20140;-89
2023/04/20 10:55:56;;;;;;;11.02;5.47;;;;;;;23.95;60.50;99568.06;4482359;32;20084;-90
2023/04/20 10:58:22;;;;;;;7.10;4.82;;;;;;;23.93;60.49;99564.69;4468979;32;20135;-88
2023/04/20 11:01:01;;;;;;;8.13;4.43;;;;;;;23.97;60.50;99570.56;4482410;31;20112;-88
2023/04/20 11:03:27;;;;;;;7.03;4.70;;;;;;;24.13;60.51;99565.53;4469279;32;20081;-89
2023/04/20 11:05:53;;;;;;;9.80;6.03;;;;;;;24.18;60.51;99565.97;4482943;32;20094;-88
2023/04/20 11:08:18;;;;;;;6.50;4.93;;;;;;;24.23;60.51;99565.53;4466472;31;20431;-88
2023/04/20 11:10:44;;;;;;;11.10;4.93;;;;;;;23.97;60.50;99568.75;4486990;31;20089;-88
2023/04/20 11:13:21;;;;;;;7.65;5.07;;;;;;;23.86;60.49;99579.50;4471489;32;20111;-88
2023/04/20 11:15:46;;;;;;;6.45;4.72;;;;;;;23.40;60.46;99575.56;4472517;32;20088;-87
2023/04/20 11:18:11;;;;;;;6.03;4.70;;;;;;;23.18;60.47;99573.97;4471002;32;20128;-87
2023/04/20 11:20:48;;;;;;;8.13;5.12;;;;;;;23.11;60.46;99570.16;4485411;31;20175;-88
2023/04/20 11:23:13;;;;;;;7.87;4.70;;;;;;;23.19;60.46;99570.34;4490254;31;20156;-88